Time;durP1;ratioP1;P1;durP2;ratioP2;P2;SDS_P1;SDS_P2;PMS_P1;PMS_P2;Temp;Humidity;BMP_temperature;BMP_pressure;BME280_temperature;BME280_humidity;BME280_pressure;Samples;Min_cycle;Max_cycle;Signal;HPM_P1;HPM_P2
2023/07/08 00:02:13;;;;;;;6.35;3.85;;;17.80;99.90;;;;;;5091392;28;20501;-80
2023/07/08 00:04:39;;;;;;;6.03;3.80;;;18.10;99.90;;;;;;5080368;28;20415;-80
2023/07/08 00:07:10;;;;;;;6.83;3.83;;;17.90;99.90;;;;;;5073150;28;20433;-81
2023/07/08 00:09:36;;;;;;;9.45;4.18;;;18.00;99.90;;;;;;5071359;28;20415;-80
2023/07/08 00:12:04;;;;;;;7.90;4.03;;;18.20;99.90;;;;;;5055552;28;20427;-80
2023/07/08 00:14:30;;;;;;;6.63;4.20;;;17.70;99.90;;;;;;5060336;28;20423;-80
2023/07/08 00:16:55;;;;;;;7.75;4.13;;;18.00;99.90;;;;;;5080207;28;20432;-80
2023/07/08 00:19:23;;;;;;;5.95;4.00;;;17.80;99.90;;;;;;5055279;28;20412;-80
2023/07/08 00:21:51;;;;;;;8.25;4.32;;;17.90;99.90;;;;;;5056239;28;20423;-80
2023/07/08 00:24:17;;;;;;;6.97;4.25;;;17.80;99.90;;;;;;5068205;28;20410;-80
2023/07/08 00:26:43;;;;;;;9.10;4.72;;;17.70;99.90;;;;;;5075583;28;20413;-80
2023/07/08 00:29:12;;;;;;;6.77;4.37;;;17.60;99.90;;;;;;5092471;28;20413;-80
2023/07/08 00:31:38;;;;;;;7.18;4.00;;;17.80;99.90;;;;;;5065476;28;20426;-80
2023/07/08 00:34:03;;;;;;;6.43;4.30;;;17.70;99.90;;;;;;5073436;28;20408;-80
2023/07/08 00:36:30;;;;;;;6.83;4.10;;;17.60;99.90;;;;;;5073810;28;20458;-80
2023/07/08 00:38:57;;;;;;;5.95;4.18;;;17.50;99.90;;;;;;5074856;28;20815;-80
2023/07/08 00:41:25;;;;;;;9.43;4.70;;;17.50;99.90;;;;;;5080738;28;20905;-80
2023/07/08 00:43:58;;;;;;;8.18;4.70;;;17.80;99.90;;;;;;5084725;28;20419;-80
2023/07/08 00:46:27;;;;;;;7.07;4.95;;;17.50;99.90;;;;;;5071776;28;20407;-80
2023/07/08 00:49:08;;;;;;;8.20;4.75;;;17.70;99.90;;;;;;5055465;28;20403;-80
2023/07/08 00:51:37;;;;;;;6.28;4.22;;;17.40;99.90;;;;;;5071757;28;20423;-80
2023/07/08 00:54:04;;;;;;;8.48;4.50;;;;;;;;;;5079875;28;20471;-80
2023/07/08 00:56:38;;;;;;;6.55;4.60;;;17.40;99.90;;;;;;5091761;28;20410;-80
2023/07/08 00:59:09;;;;;;;9.30;5.30;;;17.20;99.90;;;;;;5075142;28;20406;-80
2023/07/08 01:01:42;;;;;;;11.23;5.25;;;17.20;99.90;;;;;;5075023;28;20424;-80
2023/07/08 01:04:14;;;;;;;6.30;4.50;;;17.20;99.90;;;;;;5076410;28;20975;-80
2023/07/08 01:06:45;;;;;;;8.82;4.65;;;16.80;99.90;;;;;;5097621;28;20449;-80
2023/07/08 01:09:15;;;;;;;8.30;4.70;;;17.10;99.90;;;;;;5071041;28;20419;-81
2023/07/08 01:11:41;;;;;;;9.07;4.72;;;16.90;99.90;;;;;;5070747;28;20419;-81
2023/07/08 01:14:12;;;;;;;7.63;4.85;;;17.00;99.90;;;;;;5071134;28;20460;-80
2023/07/08 01:16:38;;;;;;;9.10;4.70;;;17.10;99.90;;;;;;5059808;28;20826;-80
2023/07/08 01:19:09;;;;;;;6.70;4.50;;;16.80;99.90;;;;;;5091866;28;20421;-81
2023/07/08 01:21:39;;;;;;;8.55;4.88;;;16.80;99.90;;;;;;5071888;28;20903;-81
2023/07/08 01:24:10;;;;;;;7.20;4.82;;;16.90;99.90;;;;;;5076180;28;20429;-80
2023/07/08 01:26:39;;;;;;;8.68;4.70;;;16.90;99.90;;;;;;5088242;28;20418;-80
2023/07/08 01:29:07;;;;;;;9.38;4.90;;;16.80;99.90;;;;;;5080282;28;20408;-80
2023/07/08 01:31:33;;;;;;;8.47;4.93;;;17.10;99.90;;;;;;5103325;28;20392;-80
2023/07/08 01:34:00;;;;;;;8.93;5.07;;;;;;;;;;5059968;28;20430;-80
2023/07/08 01:36:31;;;;;;;8.27;5.00;;;16.60;99.90;;;;;;5041804;28;20917;-80
2023/07/08 01:38:57;;;;;;;10.35;5.10;;;17.10;99.90;;;;;;5091149;28;20402;-80
2023/07/08 01:41:22;;;;;;;8.23;5.07;;;17.00;99.90;;;;;;5063920;28;20420;-80
2023/07/08 01:43:48;;;;;;;11.00;5.60;;;16.80;99.90;;;;;;5052279;28;20411;-80
2023/07/08 01:46:26;;;;;;;7.80;5.17;;;16.70;99.90;;;;;;5071306;28;20891;-80
2023/07/08 01:48:57;;;;;;;8.48;4.82;;;16.60;99.90;;;;;;5053859;28;20407;-80
2023/07/08 01:51:25;;;;;;;8.38;5.05;;;16.70;99.90;;;;;;5071233;28;20415;-80
2023/07/08 01:53:51;;;;;;;7.90;5.05;;;16.60;99.90;;;;;;5063933;28;20450;-80
2023/07/08 01:56:17;;;;;;;7.17;4.73;;;16.60;99.90;;;;;;5090889;28;20513;-80
2023/07/08 01:58:43;;;;;;;8.05;4.90;;;16.40;99.90;;;;;;5070319;28;20422;-80
2023/07/08 02:01:09;;;;;;;9.63;5.00;;;16.80;99.90;;;;;;5073956;28;20518;-80
2023/07/08 02:03:35;;;;;;;7.25;5.10;;;16.60;99.90;;;;;;5062677;28;20422;-80
2023/07/08 02:06:01;;;;;;;7.72;5.35;;;;;;;;;;5074158;28;20738;-80
2023/07/08 02:08:27;;;;;;;6.70;4.80;;;16.30;99.90;;;;;;5068540;28;20464;-80
2023/07/08 02:10:56;;;;;;;8.52;5.25;;;16.20;99.90;;;;;;5074549;28;20496;-80
2023/07/08 02:13:22;;;;;;;10.95;5.25;;;16.30;99.90;;;;;;5090167;28;20418;-80
2023/07/08 02:15:49;;;;;;;8.40;5.10;;;16.50;99.90;;;;;;5052693;28;20419;-80
2023/07/08 02:18:15;;;;;;;8.50;5.15;;;16.30;99.90;;;;;;5070466;28;20427;-80
2023/07/08 02:20:41;;;;;;;8.95;5.55;;;16.40;99.90;;;;;;5049521;28;20422;-81
2023/07/08 02:23:07;;;;;;;8.65;5.32;;;16.50;99.90;;;;;;5070401;28;20600;-81
2023/07/08 02:25:33;;;;;;;8.70;5.30;;;16.30;99.90;;;;;;5070474;28;20919;-81
2023/07/08 02:27:58;;;;;;;10.13;5.30;;;16.30;99.90;;;;;;5058315;28;20418;-81
2023/07/08 02:30:24;;;;;;;9.27;5.80;;;16.20;99.90;;;;;;5054792;28;20451;-80
2023/07/08 02:32:56;;;;;;;9.38;5.68;;;16.30;99.90;;;;;;5057132;28;20470;-80
2023/07/08 02:35:25;;;;;;;7.82;5.40;;;16.00;99.90;;;;;;5049623;28;20420;-80
2023/07/08 02:37:51;;;;;;;7.97;5.60;;;16.20;99.90;;;;;;5076142;28;20913;-80
2023/07/08 02:40:17;;;;;;;9.63;5.55;;;;;;;;;;5090550;28;20402;-80
2023/07/08 02:42:43;;;;;;;8.63;5.90;;;16.20;99.90;;;;;;5073330;28;20912;-80
2023/07/08 02:45:10;;;;;;;9.98;5.97;;;16.40;99.90;;;;;;5090419;28;20401;-80
2023/07/08 02:47:36;;;;;;;9.05;5.88;;;16.10;99.90;;;;;;5090528;28;20406;-80
2023/07/08 02:50:02;;;;;;;9.40;5.83;;;17.70;99.90;;;;;;5065933;28;20568;-80
2023/07/08 02:52:28;;;;;;;10.97;6.20;;;;;;;;;;5070206;28;20455;-80
2023/07/08 02:54:54;;;;;;;10.75;6.18;;;;;;;;;;5069514;28;20923;-80
2023/07/08 02:57:20;;;;;;;10.63;5.63;;;16.10;99.90;;;;;;5070326;28;20399;-80
2023/07/08 02:59:46;;;;;;;10.15;6.05;;;15.80;99.90;;;;;;5053561;28;20400;-80
2023/07/08 03:02:11;;;;;;;10.70;6.20;;;15.70;99.90;;;;;;5054341;28;20414;-80
2023/07/08 03:04:39;;;;;;;10.23;6.03;;;15.80;99.90;;;;;;5057823;28;20419;-80
2023/07/08 03:07:06;;;;;;;10.98;6.05;;;15.70;99.90;;;;;;5070367;28;20407;-80
2023/07/08 03:09:32;;;;;;;8.93;5.83;;;15.80;99.90;;;;;;5040372;28;20415;-81
2023/07/08 03:12:00;;;;;;;9.57;6.05;;;;;;;;;;5075358;28;20403;-81
2023/07/08 03:14:26;;;;;;;10.77;6.03;;;15.70;99.90;;;;;;5073737;28;20427;-80
2023/07/08 03:16:52;;;;;;;10.07;6.43;;;;;;;;;;5056885;28;20428;-80
2023/07/08 03:19:17;;;;;;;9.50;6.40;;;15.70;99.90;;;;;;5078066;28;20808;-79
2023/07/08 03:21:43;;;;;;;12.20;6.57;;;15.70;99.90;;;;;;5059120;28;20411;-80
2023/07/08 03:24:13;;;;;;;10.15;6.57;;;15.60;99.90;;;;;;5073661;28;20420;-80
2023/07/08 03:26:39;;;;;;;10.60;6.53;;;15.80;99.90;;;;;;5057924;28;20423;-79
2023/07/08 03:29:08;;;;;;;10.55;6.72;;;16.00;99.90;;;;;;5057704;28;20395;-80
2023/07/08 03:31:34;;;;;;;9.00;6.38;;;15.50;99.90;;;;;;5074644;28;20491;-79
2023/07/08 03:34:00;;;;;;;10.38;6.75;;;15.60;99.90;;;;;;5088581;28;20517;-79
2023/07/08 03:36:26;;;;;;;14.73;7.40;;;15.70;99.90;;;;;;5074729;28;20427;-79
2023/07/08 03:38:55;;;;;;;9.27;6.65;;;15.70;99.90;;;;;;5039656;28;20443;-80
2023/07/08 03:41:21;;;;;;;11.60;6.72;;;15.60;99.90;;;;;;5066806;28;20418;-79
2023/07/08 03:43:47;;;;;;;10.13;6.47;;;15.70;99.90;;;;;;5046381;28;20749;-79
2023/07/08 03:46:14;;;;;;;9.87;6.53;;;15.70;99.90;;;;;;5093104;28;20417;-80
2023/07/08 03:48:40;;;;;;;10.13;6.40;;;15.70;99.90;;;;;;5072391;28;20479;-80
2023/07/08 03:51:14;;;;;;;13.30;6.40;;;15.60;99.90;;;;;;5056579;28;20416;-80
2023/07/08 03:53:40;;;;;;;11.57;6.75;;;15.50;99.90;;;;;;5081872;28;20925;-81
2023/07/08 03:56:05;;;;;;;12.10;6.80;;;15.60;99.90;;;;;;5074098;28;20435;-80
2023/07/08 03:58:31;;;;;;;9.40;6.30;;;;;;;;;;5074438;28;20396;-80
2023/07/08 04:00:57;;;;;;;11.10;6.50;;;;;;;;;;5075169;28;20912;-81
2023/07/08 04:03:24;;;;;;;8.57;6.17;;;15.70;99.90;;;;;;5079478;28;20473;-81
2023/07/08 04:05:49;;;;;;;10.82;6.50;;;15.70;99.90;;;;;;5074621;28;20429;-82
2023/07/08 04:08:15;;;;;;;10.83;6.63;;;;;;;;;;5058741;28;20490;-81
2023/07/08 04:10:41;;;;;;;11.40;6.57;;;15.80;99.90;;;;;;5063761;28;20923;-81
2023/07/08 04:13:07;;;;;;;10.33;6.27;;;15.70;99.90;;;;;;5074023;28;20415;-81
2023/07/08 04:15:32;;;;;;;10.40;6.33;;;15.60;99.90;;;;;;5091929;28;20449;-81
2023/07/08 04:17:58;;;;;;;8.70;5.85;;;15.70;99.90;;;;;;5085471;28;20416;-80
2023/07/08 04:20:24;;;;;;;10.80;5.88;;;16.10;99.90;;;;;;5077604;28;20451;-80
2023/07/08 04:22:49;;;;;;;9.90;6.50;;;15.80;99.90;;;;;;5064680;28;20390;-80
2023/07/08 04:25:15;;;;;;;9.93;6.40;;;;;;;;;;5089664;28;20430;-80
2023/07/08 04:27:41;;;;;;;9.57;6.32;;;15.80;99.90;;;;;;5074006;28;20439;-80
2023/07/08 04:30:13;;;;;;;11.43;6.17;;;16.10;99.90;;;;;;5089595;28;20452;-81
2023/07/08 04:32:39;;;;;;;11.20;6.28;;;;;;;;;;5074909;28;20412;-81
2023/07/08 04:35:05;;;;;;;9.98;6.22;;;15.80;99.90;;;;;;5079453;28;20423;-79
2023/07/08 04:37:31;;;;;;;10.95;6.43;;;16.10;99.90;;;;;;5109953;28;20759;-80
2023/07/08 04:39:56;;;;;;;9.70;6.43;;;16.00;99.90;;;;;;5114467;28;20476;-80
2023/07/08 04:42:23;;;;;;;9.27;6.35;;;16.00;99.90;;;;;;5114125;28;20404;-80
2023/07/08 04:44:49;;;;;;;9.03;5.70;;;16.20;99.90;;;;;;5087369;28;20431;-80
2023/07/08 04:47:15;;;;;;;8.82;6.00;;;16.30;99.90;;;;;;5078627;28;20426;-81
2023/07/08 04:49:43;;;;;;;13.20;6.80;;;16.20;99.90;;;;;;5093747;28;20483;-81
2023/07/08 04:52:09;;;;;;;8.90;6.30;;;16.20;99.90;;;;;;5078402;28;20495;-81
2023/07/08 04:54:35;;;;;;;9.60;6.65;;;16.60;99.90;;;;;;5072156;28;20423;-81
2023/07/08 04:57:01;;;;;;;10.18;6.63;;;16.70;99.90;;;;;;5072976;28;20501;-81
2023/07/08 04:59:26;;;;;;;9.32;6.63;;;16.20;99.90;;;;;;5079297;28;20903;-81
2023/07/08 05:01:53;;;;;;;9.17;6.20;;;16.50;99.90;;;;;;5055912;28;20411;-81
2023/07/08 05:04:20;;;;;;;8.90;6.43;;;16.40;99.90;;;;;;5072637;28;20549;-80
2023/07/08 05:06:46;;;;;;;8.82;6.20;;;16.40;99.90;;;;;;5072121;28;20427;-81
2023/07/08 05:09:12;;;;;;;10.13;6.53;;;16.60;99.90;;;;;;5056987;28;20926;-81
2023/07/08 05:11:38;;;;;;;10.27;5.93;;;16.40;99.90;;;;;;5086287;28;20405;-81
2023/07/08 05:14:05;;;;;;;10.53;6.23;;;16.80;99.90;;;;;;5092761;28;20477;-80
2023/07/08 05:16:34;;;;;;;9.77;5.85;;;16.70;99.90;;;;;;5056054;28;20450;-81
2023/07/08 05:19:00;;;;;;;10.52;6.20;;;17.00;99.90;;;;;;5071757;28;20415;-81
2023/07/08 05:21:27;;;;;;;9.73;6.10;;;16.80;99.90;;;;;;5073082;28;20458;-79
2023/07/08 05:23:53;;;;;;;9.90;5.68;;;17.10;99.90;;;;;;5085605;28;20425;-81
2023/07/08 05:26:19;;;;;;;9.48;5.85;;;17.30;99.90;;;;;;5065996;28;20442;-80
2023/07/08 05:28:45;;;;;;;8.23;5.72;;;17.20;99.90;;;;;;5071479;28;20411;-81
2023/07/08 05:31:11;;;;;;;8.13;5.68;;;17.30;99.90;;;;;;5072494;28;20488;-81
2023/07/08 05:33:36;;;;;;;7.15;5.45;;;17.20;99.90;;;;;;5071022;28;20415;-82
2023/07/08 05:36:02;;;;;;;9.67;6.10;;;17.50;99.90;;;;;;5072184;28;20419;-81
2023/07/08 05:38:28;;;;;;;7.47;5.45;;;17.40;99.90;;;;;;5054145;28;20491;-81
2023/07/08 05:40:56;;;;;;;9.45;5.40;;;17.40;99.90;;;;;;5082129;28;20512;-80
2023/07/08 05:43:23;;;;;;;8.50;5.47;;;18.00;99.90;;;;;;5081386;28;20415;-81
2023/07/08 05:45:48;;;;;;;10.05;5.72;;;17.80;99.90;;;;;;5055269;28;20475;-81
2023/07/08 05:48:14;;;;;;;9.10;5.50;;;18.00;99.90;;;;;;5072107;28;20752;-81
2023/07/08 05:50:40;;;;;;;8.68;5.47;;;18.10;99.90;;;;;;5057539;28;20795;-82
2023/07/08 05:53:10;;;;;;;8.88;5.60;;;18.30;99.90;;;;;;5076283;28;20412;-81
2023/07/08 05:55:36;;;;;;;7.10;4.85;;;18.40;99.90;;;;;;5074902;28;20498;-79
2023/07/08 05:58:01;;;;;;;9.25;5.30;;;18.60;99.90;;;;;;5054940;28;20545;-79
2023/07/08 06:00:27;;;;;;;7.85;4.88;;;18.70;99.90;;;;;;5056866;28;20922;-79
2023/07/08 06:02:53;;;;;;;7.30;4.93;;;19.00;99.90;;;;;;5077647;28;20498;-80
2023/07/08 06:05:18;;;;;;;8.57;4.60;;;18.90;99.90;;;;;;5057657;28;20493;-79
2023/07/08 06:07:44;;;;;;;7.65;4.80;;;18.70;99.90;;;;;;5083895;28;20430;-79
2023/07/08 06:10:10;;;;;;;8.85;4.70;;;19.20;99.90;;;;;;5076409;28;20927;-81
2023/07/08 06:12:36;;;;;;;7.22;4.68;;;19.20;99.90;;;;;;5081486;28;20814;-78
2023/07/08 06:15:02;;;;;;;10.70;5.23;;;19.30;99.90;;;;;;5083842;28;20786;-80
2023/07/08 06:17:27;;;;;;;8.48;5.07;;;19.50;99.90;;;;;;5061274;28;20427;-80
2023/07/08 06:19:53;;;;;;;7.55;4.70;;;19.50;99.90;;;;;;5072286;28;20758;-81
2023/07/08 06:22:19;;;;;;;7.68;4.68;;;20.00;99.90;;;;;;5073737;28;20973;-80
2023/07/08 06:24:46;;;;;;;7.40;4.60;;;19.70;99.90;;;;;;5064174;28;20415;-81
2023/07/08 06:27:12;;;;;;;8.98;4.75;;;19.90;99.90;;;;;;5075664;28;20423;-79
2023/07/08 06:29:38;;;;;;;7.43;4.85;;;20.10;99.90;;;;;;5069774;28;20418;-80
2023/07/08 06:32:04;;;;;;;6.40;4.40;;;20.20;99.90;;;;;;5054411;28;20415;-81
2023/07/08 06:34:29;;;;;;;9.07;4.80;;;20.50;99.90;;;;;;5070421;28;20419;-79
2023/07/08 06:36:55;;;;;;;8.00;4.87;;;20.40;99.90;;;;;;5073697;28;20418;-80
2023/07/08 06:39:21;;;;;;;8.68;4.97;;;20.40;99.90;;;;;;5070330;28;20481;-80
2023/07/08 06:41:46;;;;;;;5.77;4.03;;;20.40;99.90;;;;;;5055252;28;20420;-80
2023/07/08 06:44:12;;;;;;;6.70;4.57;;;20.60;99.90;;;;;;5089863;28;20485;-79
2023/07/08 06:46:38;;;;;;;7.35;4.55;;;20.40;99.90;;;;;;5090848;28;20425;-80
2023/07/08 06:49:08;;;;;;;7.57;4.50;;;20.60;99.90;;;;;;5080881;28;20790;-80
2023/07/08 06:51:34;;;;;;;7.18;4.30;;;20.80;99.90;;;;;;5076450;28;20415;-81
2023/07/08 06:54:04;;;;;;;8.15;4.30;;;21.10;99.90;;;;;;5075689;28;20451;-80
2023/07/08 06:56:30;;;;;;;5.90;4.17;;;20.90;99.90;;;;;;5071493;28;20781;-80
2023/07/08 06:58:56;;;;;;;5.85;3.85;;;21.10;99.90;;;;;;5080794;28;21008;-80
2023/07/08 07:01:21;;;;;;;7.60;3.63;;;21.20;99.90;;;;;;5077764;28;20399;-78
2023/07/08 07:03:47;;;;;;;6.40;3.87;;;21.20;99.90;;;;;;5079110;28;20415;-80
2023/07/08 07:06:13;;;;;;;6.43;3.70;;;21.40;99.90;;;;;;5073551;28;20520;-81
2023/07/08 07:08:38;;;;;;;7.50;4.00;;;21.60;99.90;;;;;;5089678;28;20781;-81
2023/07/08 07:11:04;;;;;;;6.20;3.58;;;21.60;99.90;;;;;;5081101;28;20444;-81
2023/07/08 07:13:39;;;;;;;5.90;3.90;;;21.80;99.90;;;;;;5077712;28;20414;-82
2023/07/08 07:16:06;;;;;;;6.60;3.73;;;21.70;99.90;;;;;;5076238;28;20473;-80
2023/07/08 07:18:32;;;;;;;6.65;3.65;;;21.80;99.90;;;;;;5085103;28;20901;-79
2023/07/08 07:20:59;;;;;;;6.27;3.80;;;21.90;99.90;;;;;;5062555;28;20422;-79
2023/07/08 07:23:25;;;;;;;6.47;4.03;;;21.70;99.90;;;;;;5083440;28;20448;-80
2023/07/08 07:25:51;;;;;;;7.47;3.77;;;21.90;99.90;;;;;;5083296;28;20449;-80
2023/07/08 07:28:17;;;;;;;7.33;3.70;;;22.10;99.90;;;;;;5067979;28;20483;-80
2023/07/08 07:30:46;;;;;;;5.63;3.70;;;22.50;99.90;;;;;;5084954;28;20419;-79
2023/07/08 07:33:12;;;;;;;7.07;3.90;;;22.20;99.90;;;;;;5060933;28;20417;-78
2023/07/08 07:35:45;;;;;;;7.22;3.70;;;22.60;99.90;;;;;;5084669;28;20982;-79
2023/07/08 07:38:14;;;;;;;5.80;3.53;;;22.50;99.90;;;;;;5104179;28;20528;-78
2023/07/08 07:40:40;;;;;;;7.05;3.80;;;22.60;99.90;;;;;;5081268;28;20946;-78
2023/07/08 07:43:42;;;;;;;8.00;3.88;;;22.50;99.90;;;;;;5049160;28;20453;-79
2023/07/08 07:46:10;;;;;;;7.03;3.80;;;22.50;99.90;;;;;;5077038;28;20695;-78
2023/07/08 07:48:36;;;;;;;4.88;3.42;;;22.50;99.90;;;;;;5073735;28;20416;-78
2023/07/08 07:51:02;;;;;;;4.90;3.50;;;22.60;99.90;;;;;;5075575;28;20894;-78
2023/07/08 07:53:28;;;;;;;5.90;3.55;;;22.80;99.90;;;;;;5057983;28;20767;-78
2023/07/08 07:56:01;;;;;;;6.82;3.50;;;22.90;99.90;;;;;;5081953;28;20483;-78
2023/07/08 07:58:28;;;;;;;5.40;3.58;;;23.30;99.90;;;;;;5063063;28;20453;-79
2023/07/08 08:00:53;;;;;;;7.95;3.60;;;23.30;99.90;;;;;;5077974;28;20496;-79
2023/07/08 08:03:20;;;;;;;6.30;3.40;;;23.40;99.90;;;;;;5055574;28;20875;-78
2023/07/08 08:05:46;;;;;;;5.72;3.50;;;23.70;99.90;;;;;;5088649;28;20418;-78
2023/07/08 08:08:12;;;;;;;5.40;3.60;;;23.80;99.90;;;;;;5075439;28;20430;-78
2023/07/08 08:10:37;;;;;;;6.85;3.20;;;24.00;99.90;;;;;;5062836;28;20417;-78
2023/07/08 08:13:03;;;;;;;5.70;3.80;;;24.20;99.90;;;;;;5078481;28;20479;-78
2023/07/08 08:15:29;;;;;;;6.07;3.60;;;24.10;99.90;;;;;;5074594;28;20773;-78
2023/07/08 08:17:55;;;;;;;4.65;3.38;;;24.10;99.90;;;;;;5074202;28;20451;-77
2023/07/08 08:20:23;;;;;;;8.17;3.40;;;24.20;99.90;;;;;;5072616;28;20403;-79
2023/07/08 08:22:49;;;;;;;6.63;3.70;;;24.20;99.90;;;;;;5062136;28;20494;-77
2023/07/08 08:25:17;;;;;;;7.70;3.50;;;24.50;99.90;;;;;;5083693;28;20925;-78
2023/07/08 08:27:43;;;;;;;7.30;3.38;;;24.50;99.90;;;;;;5057658;28;20432;-77
2023/07/08 08:30:10;;;;;;;6.32;3.50;;;24.70;99.90;;;;;;5072613;28;20427;-78
2023/07/08 08:32:36;;;;;;;6.28;3.40;;;24.60;99.90;;;;;;5071881;28;20413;-79
2023/07/08 08:35:02;;;;;;;8.70;3.60;;;25.00;99.90;;;;;;5057762;28;20536;-78
2023/07/08 08:37:28;;;;;;;5.10;3.20;;;24.60;99.90;;;;;;5085738;28;20474;-78
2023/07/08 08:39:53;;;;;;;5.95;3.30;;;24.90;99.90;;;;;;5052799;28;20806;-78
2023/07/08 08:42:39;;;;;;;6.80;3.40;;;24.90;99.90;;;;;;5055436;28;20774;-78
2023/07/08 08:45:09;;;;;;;5.80;3.30;;;25.30;99.90;;;;;;5073854;28;20422;-79
2023/07/08 08:47:38;;;;;;;8.27;4.03;;;25.30;99.90;;;;;;5076308;28;20509;-80
2023/07/08 08:50:24;;;;;;;6.88;3.45;;;25.00;99.90;;;;;;5074927;28;20422;-81
2023/07/08 08:52:51;;;;;;;6.30;3.50;;;25.40;99.90;;;;;;5076970;28;20982;-80
2023/07/08 08:55:17;;;;;;;6.43;3.58;;;25.30;99.90;;;;;;5071865;28;20469;-80
2023/07/08 08:57:43;;;;;;;5.88;3.35;;;25.40;99.90;;;;;;5085162;28;20417;-81
2023/07/08 09:00:11;;;;;;;10.95;3.65;;;25.50;99.90;;;;;;5071548;28;20419;-78
2023/07/08 09:03:01;;;;;;;6.13;3.72;;;25.60;99.90;;;;;;5079487;28;20427;-81
2023/07/08 09:05:27;;;;;;;6.88;3.70;;;25.90;99.90;;;;;;5058510;28;20795;-81
2023/07/08 09:08:04;;;;;;;8.20;3.60;;;26.20;99.90;;;;;;5061627;28;20434;-80
2023/07/08 09:10:40;;;;;;;5.60;3.40;;;26.00;99.90;;;;;;5074639;28;20415;-80
2023/07/08 09:13:09;;;;;;;7.82;3.50;;;26.00;99.90;;;;;;5077529;28;20438;-80
2023/07/08 09:15:35;;;;;;;8.90;3.20;;;26.40;99.90;;;;;;5091496;28;20418;-79
2023/07/08 09:18:17;;;;;;;8.03;3.50;;;26.60;99.90;;;;;;5072165;28;20408;-79
2023/07/08 09:20:43;;;;;;;6.18;3.70;;;26.80;99.90;;;;;;5085696;28;20407;-80
2023/07/08 09:23:32;;;;;;;6.40;3.60;;;26.70;99.90;;;;;;5054701;28;20415;-80
2023/07/08 09:26:10;;;;;;;7.45;3.70;;;26.80;99.90;;;;;;5074747;28;20411;-80
2023/07/08 09:28:45;;;;;;;6.28;3.80;;;26.60;99.60;;;;;;5078276;28;20427;-82
2023/07/08 09:31:39;;;;;;;6.60;3.50;;;26.10;99.90;;;;;;5061501;28;20434;-79
2023/07/08 09:34:22;;;;;;;8.07;3.80;;;26.70;99.90;;;;;;5082639;28;20510;-80
2023/07/08 09:36:50;;;;;;;6.65;3.45;;;27.00;99.90;;;;;;5078888;28;20430;-81
2023/07/08 09:39:20;;;;;;;5.50;3.47;;;27.30;99.50;;;;;;5087077;28;21625;-80
2023/07/08 09:41:48;;;;;;;6.00;3.30;;;27.50;99.60;;;;;;5082936;28;20512;-80
2023/07/08 09:44:29;;;;;;;7.57;3.65;;;27.80;98.10;;;;;;5067326;28;20462;-80
2023/07/08 09:46:59;;;;;;;7.30;3.47;;;27.40;97.90;;;;;;5071247;28;20419;-80
2023/07/08 09:49:31;;;;;;;6.88;3.50;;;27.70;98.80;;;;;;5067204;28;20485;-81
2023/07/08 09:51:57;;;;;;;6.43;3.57;;;28.00;98.70;;;;;;5059822;28;20509;-82
2023/07/08 09:54:25;;;;;;;6.00;3.50;;;28.00;97.50;;;;;;5053711;28;20730;-81
2023/07/08 09:57:19;;;;;;;7.43;3.78;;;27.60;97.80;;;;;;5072370;28;20435;-81
2023/07/08 09:59:52;;;;;;;5.47;3.65;;;27.40;97.60;;;;;;5062631;28;20837;-81
2023/07/08 10:02:57;;;;;;;7.50;3.55;;;27.50;97.70;;;;;;5084473;28;20445;-82
2023/07/08 10:05:27;;;;;;;5.93;3.47;;;28.20;96.90;;;;;;5018667;28;20418;-82
2023/07/08 10:07:55;;;;;;;5.00;3.42;;;27.80;96.70;;;;;;5073990;28;20913;-81
2023/07/08 10:10:34;;;;;;;6.40;3.90;;;28.20;97.10;;;;;;5074669;28;20424;-80
2023/07/08 10:13:35;;;;;;;6.43;3.45;;;28.30;97.60;;;;;;5076394;28;20447;-81
2023/07/08 10:16:09;;;;;;;8.60;3.60;;;28.20;96.20;;;;;;5056220;28;20485;-81
2023/07/08 10:18:35;;;;;;;5.38;3.30;;;28.30;97.00;;;;;;5083006;28;20422;-80
2023/07/08 10:21:12;;;;;;;7.60;3.50;;;28.50;96.70;;;;;;5080469;28;20438;-80
2023/07/08 10:23:47;;;;;;;7.13;3.65;;;28.40;96.10;;;;;;5086457;28;20433;-80
2023/07/08 10:26:16;;;;;;;6.50;3.92;;;28.40;95.90;;;;;;5078285;28;20401;-81
2023/07/08 10:28:57;;;;;;;9.52;4.00;;;28.30;96.10;;;;;;5089313;28;20411;-81
2023/07/08 10:31:54;;;;;;;6.73;3.43;;;28.50;95.60;;;;;;5069155;28;20902;-81
2023/07/08 10:34:26;;;;;;;4.72;3.55;;;27.20;94.60;;;;;;5083243;28;20419;-80
2023/07/08 10:37:28;;;;;;;5.95;3.72;;;29.10;95.10;;;;;;5074559;28;20773;-76
2023/07/08 10:40:29;;;;;;;5.45;3.70;;;29.20;94.90;;;;;;5060414;28;20428;-76
2023/07/08 10:43:01;;;;;;;7.47;3.63;;;29.20;94.80;;;;;;5044864;28;20451;-79
2023/07/08 10:45:53;;;;;;;6.67;3.60;;;29.10;94.90;;;;;;5092773;28;20417;-79
2023/07/08 10:48:46;;;;;;;7.20;3.80;;;29.30;94.90;;;;;;5082919;28;20460;-80
2023/07/08 10:51:33;;;;;;;5.85;3.80;;;29.20;93.90;;;;;;5069136;28;20429;-80
2023/07/08 10:54:12;;;;;;;7.10;3.60;;;29.40;94.20;;;;;;5080515;28;20770;-79
2023/07/08 10:56:54;;;;;;;6.78;3.35;;;29.50;94.90;;;;;;5073300;28;20430;-79
2023/07/08 10:59:47;;;;;;;7.10;3.60;;;29.70;93.70;;;;;;5067579;28;20417;-79
2023/07/08 11:02:34;;;;;;;6.47;3.70;;;29.30;93.20;;;;;;5079271;28;20499;-79
2023/07/08 11:05:23;;;;;;;6.45;3.67;;;29.50;92.90;;;;;;5064048;28;20447;-79
2023/07/08 11:08:01;;;;;;;6.57;3.67;;;30.00;93.40;;;;;;5065343;28;20427;-80
2023/07/08 11:10:40;;;;;;;5.90;3.70;;;30.00;93.80;;;;;;5074020;28;20770;-80
2023/07/08 11:13:15;;;;;;;7.70;3.60;;;30.00;93.90;;;;;;5062569;28;20419;-78
2023/07/08 11:16:00;;;;;;;4.40;3.47;;;30.10;92.90;;;;;;5079910;28;20510;-79
2023/07/08 11:18:38;;;;;;;5.10;3.60;;;30.40;93.70;;;;;;5058259;28;20836;-81
2023/07/08 11:21:13;;;;;;;6.25;3.60;;;30.20;93.00;;;;;;5079010;28;20419;-80
2023/07/08 11:23:41;;;;;;;5.57;3.67;;;30.60;93.00;;;;;;5075347;28;20451;-79
2023/07/08 11:26:21;;;;;;;5.93;3.63;;;30.80;93.30;;;;;;5074437;28;20501;-80
2023/07/08 11:28:49;;;;;;;6.57;3.83;;;30.90;93.40;;;;;;5078385;28;20471;-79
2023/07/08 11:31:16;;;;;;;6.07;3.67;;;30.60;93.00;;;;;;5080491;28;20435;-79
2023/07/08 11:33:42;;;;;;;6.85;4.05;;;30.50;93.20;;;;;;5074245;28;20420;-79
2023/07/08 11:36:10;;;;;;;6.80;3.78;;;30.00;92.70;;;;;;5080578;28;20519;-80
2023/07/08 11:38:38;;;;;;;11.00;4.00;;;30.20;92.60;;;;;;5085873;28;20454;-81
2023/07/08 11:41:13;;;;;;;6.63;3.83;;;30.40;92.40;;;;;;5070413;28;20481;-80
2023/07/08 11:43:52;;;;;;;6.03;3.70;;;30.30;93.00;;;;;;5093997;27;20410;-80
2023/07/08 11:46:21;;;;;;;8.45;4.10;;;30.70;92.40;;;;;;5062422;28;20422;-81
2023/07/08 11:48:51;;;;;;;6.57;3.90;;;30.30;92.60;;;;;;5088497;28;20415;-82
2023/07/08 11:51:24;;;;;;;5.95;3.70;;;30.60;92.50;;;;;;5071010;28;20418;-82
2023/07/08 11:54:11;;;;;;;4.50;3.63;;;30.80;92.00;;;;;;5072778;28;20416;-81
2023/07/08 11:56:47;;;;;;;6.28;4.07;;;30.70;91.30;;;;;;5083361;28;21069;-81
2023/07/08 11:59:24;;;;;;;6.85;4.18;;;30.60;91.40;;;;;;5082658;28;20466;-78
2023/07/08 12:01:50;;;;;;;10.48;4.03;;;30.80;91.50;;;;;;5081398;28;20425;-79
2023/07/08 12:04:29;;;;;;;6.60;3.60;;;30.80;91.80;;;;;;5083134;28;20427;-79
2023/07/08 12:07:25;;;;;;;5.40;3.40;;;31.00;91.60;;;;;;5081339;28;20762;-78
2023/07/08 12:10:25;;;;;;;7.22;3.90;;;31.30;91.30;;;;;;5081566;28;20419;-80
2023/07/08 12:12:52;;;;;;;8.27;4.20;;;31.50;90.20;;;;;;5072306;28;20488;-79
2023/07/08 12:15:32;;;;;;;5.88;3.55;;;31.30;91.00;;;;;;5063136;28;20474;-79
2023/07/08 12:18:31;;;;;;;7.47;3.60;;;30.90;90.40;;;;;;5092174;28;20405;-79
2023/07/08 12:21:03;;;;;;;7.30;3.80;;;31.20;90.30;;;;;;5075122;28;20398;-79
2023/07/08 12:23:29;;;;;;;6.77;3.90;;;30.80;90.60;;;;;;5075321;28;20472;-79
2023/07/08 12:26:00;;;;;;;6.90;3.77;;;31.00;90.60;;;;;;5078257;28;20427;-80
2023/07/08 12:28:26;;;;;;;6.70;3.97;;;31.30;90.40;;;;;;5055535;28;20427;-80
2023/07/08 12:30:54;;;;;;;6.47;3.73;;;31.60;90.40;;;;;;5054269;28;20411;-80
2023/07/08 12:33:33;;;;;;;6.03;4.00;;;31.70;89.90;;;;;;5091034;28;20516;-80
2023/07/08 12:36:01;;;;;;;6.30;3.80;;;31.80;89.80;;;;;;5067042;28;20573;-80
2023/07/08 12:38:29;;;;;;;6.07;3.65;;;31.90;89.30;;;;;;5076431;28;20426;-80
2023/07/08 12:41:08;;;;;;;7.00;3.92;;;31.80;87.70;;;;;;5069118;28;20429;-81
2023/07/08 12:43:33;;;;;;;5.53;3.50;;;31.40;87.80;;;;;;5071712;28;20456;-80
2023/07/08 12:45:59;;;;;;;5.93;3.57;;;31.90;88.40;;;;;;5070414;28;20444;-80
2023/07/08 12:48:25;;;;;;;6.80;3.78;;;31.70;87.10;;;;;;5079390;28;20911;-80
2023/07/08 12:50:51;;;;;;;5.97;3.80;;;32.30;86.70;;;;;;5054154;28;20428;-81
2023/07/08 12:53:16;;;;;;;8.27;4.10;;;32.10;84.90;;;;;;5071242;28;20430;-81
2023/07/08 12:55:44;;;;;;;5.00;3.80;;;32.50;84.30;;;;;;5055171;28;20453;-81
2023/07/08 12:58:18;;;;;;;8.35;3.90;;;32.40;84.10;;;;;;5051848;28;20948;-81
2023/07/08 13:00:45;;;;;;;6.45;3.60;;;32.40;84.00;;;;;;5078141;28;20479;-81
2023/07/08 13:03:21;;;;;;;6.95;4.07;;;32.30;81.80;;;;;;5082192;28;20433;-80
2023/07/08 13:05:49;;;;;;;6.63;4.05;;;32.60;82.00;;;;;;5076197;28;20869;-81